createdAt,value
2022-09-28T00:01:08.162Z,94.43
2022-09-28T00:06:12.630Z,95.92
2022-09-28T00:11:15.348Z,96.35
2022-09-28T00:16:19.572Z,96.54
2022-09-28T00:21:26.799Z,96.59
2022-09-28T00:26:29.980Z,94.69
2022-09-28T00:31:33.351Z,96.60
2022-09-28T00:36:34.944Z,95.57
2022-09-28T00:41:36.210Z,94.35
2022-09-28T00:46:37.543Z,94.51
2022-09-28T00:51:41.970Z,95.56
2022-09-28T00:56:47.046Z,94.63
2022-09-28T01:01:49.293Z,94.45
2022-09-28T01:06:51.228Z,94.33
2022-09-28T01:11:52.932Z,94.12
2022-09-28T01:17:08.554Z,93.48
2022-09-28T01:22:43.340Z,93.78
2022-09-28T01:27:49.521Z,94.93
2022-09-28T01:32:54.716Z,96.33
2022-09-28T01:38:19.805Z,94.56
2022-09-28T01:43:25.806Z,93.83
2022-09-28T01:48:36.210Z,95.10
2022-09-28T01:53:43.296Z,95.28
2022-09-28T01:59:00.215Z,95.32
2022-09-28T02:04:14.670Z,94.59
2022-09-28T02:09:28.457Z,94.51
2022-09-28T02:14:34.754Z,94.49
2022-09-28T02:19:36.480Z,94.98
2022-09-28T02:24:41.047Z,94.78
2022-09-28T02:29:42.542Z,94.80
2022-09-28T02:34:44.030Z,95.41
2022-09-28T02:39:45.356Z,95.71
2022-09-28T02:45:10.072Z,95.72
2022-09-28T02:50:36.775Z,95.53
2022-09-28T02:55:43.613Z,95.21
2022-09-28T03:00:56.116Z,95.09
2022-09-28T03:06:03.252Z,95.40
2022-09-28T03:11:13.817Z,95.70
2022-09-28T03:16:17.708Z,95.77
2022-09-28T03:21:19.132Z,95.51
2022-09-28T03:26:20.502Z,95.49
2022-09-28T03:31:21.934Z,95.87
2022-09-28T03:36:23.483Z,94.93
2022-09-28T03:41:25.231Z,94.78
2022-09-28T03:46:27.300Z,94.55
2022-09-28T03:51:28.672Z,94.78
2022-09-28T03:56:30.167Z,94.79
2022-09-28T04:01:31.640Z,95.08
2022-09-28T04:06:33.068Z,94.33
2022-09-28T04:11:59.450Z,95.55
2022-09-28T04:16:56.227Z,94.95
2022-09-28T04:21:57.569Z,94.69
2022-09-28T04:27:18.879Z,94.95
2022-09-28T04:32:20.272Z,94.86
2022-09-28T04:37:21.618Z,95.59
2022-09-28T04:42:22.970Z,95.33
2022-09-28T04:47:25.053Z,95.34
2022-09-28T04:52:27.180Z,95.50
2022-09-28T04:57:28.508Z,94.63
2022-09-28T05:02:29.990Z,95.36
2022-09-28T05:07:31.357Z,95.18
2022-09-28T05:12:32.829Z,94.79
2022-09-28T05:17:34.422Z,95.20
2022-09-28T05:22:35.714Z,94.90
2022-09-28T05:27:37.025Z,95.34
2022-09-28T05:32:42.107Z,95.09
2022-09-28T05:37:43.775Z,95.17
2022-09-28T05:42:45.095Z,95.88
2022-09-28T05:47:46.412Z,95.45
2022-09-28T05:52:50.050Z,95.37
2022-09-28T05:57:51.390Z,94.98
2022-09-28T06:03:12.922Z,96.17
2022-09-28T06:08:14.279Z,95.23
2022-09-28T06:13:15.653Z,95.26
2022-09-28T06:18:16.994Z,95.61
2022-09-28T06:23:18.393Z,95.77
2022-09-28T06:28:19.743Z,95.82
2022-09-28T06:33:21.866Z,95.93
2022-09-28T06:38:23.187Z,95.39
2022-09-28T06:43:24.558Z,96.17
2022-09-28T06:48:26.136Z,95.94
2022-09-28T06:53:28.424Z,96.38
2022-09-28T06:58:30.901Z,96.21
2022-09-28T07:03:32.260Z,96.30
2022-09-28T07:08:33.600Z,96.24
2022-09-28T07:13:49.919Z,97.32
2022-09-28T07:18:51.981Z,96.48
2022-09-28T07:23:54.493Z,96.81
2022-09-28T07:28:56.040Z,96.05
2022-09-28T07:33:58.568Z,96.08
2022-09-28T07:38:59.890Z,96.01
2022-09-28T07:44:07.783Z,96.67
2022-09-28T07:49:12.226Z,96.42
2022-09-28T07:54:13.873Z,96.17
2022-09-28T07:59:18.208Z,96.37
2022-09-28T08:04:20.464Z,96.58
2022-09-28T08:09:21.789Z,96.51
2022-09-28T08:14:23.591Z,96.63
2022-09-28T08:19:24.936Z,96.26
2022-09-28T08:24:30.911Z,96.44
2022-09-28T08:29:32.331Z,96.80
2022-09-28T08:34:38.927Z,96.64
2022-09-28T08:39:40.425Z,95.76
2022-09-28T08:44:44.735Z,96.01
2022-09-28T08:49:49.923Z,95.78
2022-09-28T08:54:56.144Z,96.13
2022-09-28T09:00:00.556Z,96.10
2022-09-28T09:05:13.327Z,96.21
2022-09-28T09:10:42.542Z,95.89
2022-09-28T09:15:55.901Z,95.60
2022-09-28T09:20:59.577Z,95.29
2022-09-28T09:26:18.898Z,95.08
2022-09-28T09:31:33.138Z,94.16
2022-09-28T09:36:47.279Z,94.56
2022-09-28T09:42:08.877Z,94.84
2022-09-28T09:47:14.769Z,94.28
2022-09-28T09:52:26.192Z,94.67
2022-09-28T09:57:35.944Z,93.86
2022-09-28T10:02:39.398Z,93.37
2022-09-28T10:07:50.753Z,93.21
2022-09-28T10:12:52.900Z,93.68
2022-09-28T10:17:56.815Z,93.02
2022-09-28T10:23:01.952Z,93.17
2022-09-28T10:28:06.233Z,92.94
2022-09-28T10:33:28.785Z,92.17
2022-09-28T10:38:31.272Z,91.43
2022-09-28T10:43:38.668Z,92.22
2022-09-28T10:48:59.879Z,92.05
2022-09-28T10:54:02.591Z,90.21
2022-09-28T10:59:28.619Z,90.78
2022-09-28T11:04:39.924Z,91.93
2022-09-28T11:09:45.783Z,89.06
2022-09-28T11:14:55.576Z,90.95
2022-09-28T11:19:59.755Z,90.38
2022-09-28T11:25:16.084Z,90.67
2022-09-28T11:30:30.956Z,89.56
2022-09-28T11:36:03.832Z,90.59
2022-09-28T11:41:23.720Z,90.03
2022-09-28T11:46:34.568Z,90.68
2022-09-28T11:51:39.712Z,91.18
2022-09-28T11:56:48.557Z,90.55
2022-09-28T12:01:55.492Z,90.00
2022-09-28T12:07:03.696Z,90.19
2022-09-28T12:12:20.846Z,90.36
2022-09-28T12:17:28.531Z,88.02
2022-09-28T12:22:34.749Z,89.60
2022-09-28T12:27:51.400Z,89.03
2022-09-28T12:32:59.460Z,89.74
2022-09-28T12:38:12.821Z,90.60
2022-09-28T12:43:29.003Z,89.95
2022-09-28T12:49:15.874Z,90.08
2022-09-28T12:54:28.447Z,86.46
2022-09-28T12:59:39.562Z,87.45
2022-09-28T13:04:55.015Z,88.71
2022-09-28T13:10:33.082Z,88.74
2022-09-28T13:15:43.524Z,88.14
2022-09-28T13:21:05.508Z,88.23
2022-09-28T13:26:17.220Z,88.43
2022-09-28T13:31:30.895Z,87.53
2022-09-28T13:36:36.630Z,87.47
2022-09-28T13:41:40.367Z,88.04
2022-09-28T13:47:20.882Z,88.70
2022-09-28T13:52:44.370Z,87.52
2022-09-28T13:57:52.680Z,88.19
2022-09-28T14:03:04.028Z,88.27
2022-09-28T14:08:08.213Z,88.47
2022-09-28T14:13:10.355Z,88.07
2022-09-28T14:18:33.606Z,89.30
2022-09-28T14:23:47.638Z,89.62
2022-09-28T14:29:10.184Z,89.55
2022-09-28T14:34:32.736Z,91.54
2022-09-28T14:39:55.588Z,90.57
2022-09-28T14:45:06.301Z,90.99
2022-09-28T14:50:20.361Z,91.46
2022-09-28T14:55:31.031Z,93.17
2022-09-28T15:00:32.870Z,91.84
2022-09-28T15:05:48.170Z,91.98
2022-09-28T15:10:50.459Z,91.46
2022-09-28T15:15:59.329Z,91.44
2022-09-28T15:21:01.754Z,91.16
2022-09-28T15:26:07.613Z,91.76
2022-09-28T15:31:18.612Z,91.33
2022-09-28T15:36:26.484Z,91.54
2022-09-28T15:41:28.635Z,92.40
2022-09-28T15:46:30.083Z,93.67
2022-09-28T15:51:44.252Z,93.73
2022-09-28T15:57:02.336Z,93.10
2022-09-28T16:02:19.094Z,91.86
2022-09-28T16:07:35.279Z,91.47
2022-09-28T16:12:36.628Z,91.10
2022-09-28T16:17:38.357Z,91.29
2022-09-28T16:22:42.811Z,91.37
2022-09-28T16:27:45.649Z,91.54
2022-09-28T16:32:52.962Z,91.57
2022-09-28T16:38:11.693Z,90.85
2022-09-28T16:43:34.889Z,91.01
2022-09-28T16:48:40.417Z,91.15
2022-09-28T16:54:00.518Z,91.02
2022-09-28T16:59:02.306Z,91.69
2022-09-28T17:04:03.926Z,91.48
2022-09-28T17:09:07.005Z,91.31
2022-09-28T17:14:08.822Z,91.80
2022-09-28T17:19:19.302Z,91.32
2022-09-28T17:24:20.941Z,92.87
2022-09-28T17:29:23.567Z,93.92
2022-09-28T17:34:24.949Z,94.46
2022-09-28T17:39:26.392Z,93.97
2022-09-28T17:44:27.735Z,93.88
2022-09-28T17:49:29.283Z,95.17
2022-09-28T17:54:30.533Z,95.00
2022-09-28T17:59:31.847Z,94.43
2022-09-28T18:04:51.396Z,95.10
2022-09-28T18:09:56.574Z,96.00
2022-09-28T18:14:58.014Z,95.62
2022-09-28T18:19:59.339Z,96.35
2022-09-28T18:25:00.693Z,95.70
2022-09-28T18:30:02.286Z,95.38
2022-09-28T18:35:04.192Z,96.97
2022-09-28T18:40:06.382Z,96.39
2022-09-28T18:45:11.099Z,95.98
2022-09-28T18:50:15.232Z,95.95
2022-09-28T18:55:16.765Z,95.51
2022-09-28T19:00:18.056Z,95.86
2022-09-28T19:05:19.404Z,96.69
2022-09-28T19:10:20.809Z,96.00
2022-09-28T19:15:22.688Z,96.02
2022-09-28T19:20:23.992Z,95.97
2022-09-28T19:25:25.511Z,95.50
2022-09-28T19:30:26.792Z,95.71
2022-09-28T19:35:28.122Z,95.63
2022-09-28T19:40:29.485Z,95.55
2022-09-28T19:45:30.818Z,95.22
2022-09-28T19:50:32.841Z,94.66
2022-09-28T19:55:37.147Z,96.63
2022-09-28T20:00:38.550Z,94.61
2022-09-28T20:05:41.404Z,94.22
2022-09-28T20:10:54.518Z,95.84
2022-09-28T20:15:56.352Z,94.57
2022-09-28T20:21:05.886Z,95.63
2022-09-28T20:26:09.225Z,95.48
2022-09-28T20:31:18.878Z,95.91
2022-09-28T20:36:25.294Z,96.34
2022-09-28T20:41:27.357Z,96.09
2022-09-28T20:46:30.107Z,96.64
2022-09-28T20:51:32.274Z,96.13
2022-09-28T20:56:37.976Z,96.21
2022-09-28T21:01:39.993Z,96.41
2022-09-28T21:06:42.045Z,98.56
2022-09-28T21:11:43.393Z,97.12
2022-09-28T21:16:44.732Z,97.12
2022-09-28T21:21:46.684Z,97.72
2022-09-28T21:26:48.024Z,97.50
2022-09-28T21:31:49.375Z,97.32
2022-09-28T21:36:51.200Z,98.45
2022-09-28T21:41:52.714Z,97.90
2022-09-28T21:46:54.045Z,97.85
2022-09-28T21:51:55.488Z,96.52
2022-09-28T21:56:56.827Z,95.27
2022-09-28T22:01:58.211Z,96.45
2022-09-28T22:06:59.650Z,96.93
2022-09-28T22:12:01.234Z,96.86
2022-09-28T22:17:02.477Z,97.60
2022-09-28T22:22:03.821Z,97.29
2022-09-28T22:27:05.139Z,98.48
2022-09-28T22:32:07.449Z,97.76
2022-09-28T22:37:08.865Z,97.56
2022-09-28T22:42:10.210Z,95.90
2022-09-28T22:47:11.653Z,95.25
2022-09-28T22:52:13.012Z,95.80
2022-09-28T22:57:15.523Z,96.20
2022-09-28T23:02:16.893Z,95.98
2022-09-28T23:07:18.219Z,98.00
2022-09-28T23:12:19.528Z,97.18
2022-09-28T23:17:20.912Z,96.17
2022-09-28T23:22:22.325Z,96.03
2022-09-28T23:27:23.647Z,95.58
2022-09-28T23:32:27.524Z,96.12
2022-09-28T23:37:32.527Z,94.98
2022-09-28T23:42:34.843Z,94.70
2022-09-28T23:47:37.299Z,94.86
2022-09-28T23:52:38.677Z,95.43
2022-09-28T23:57:42.559Z,95.29
